Etusivu
METAR-TAF:

METAR-TAF

Lentoasemat :

Västeråsin lentoasema

Västerås, Ruotsi

Leveyspiiri: 59-35N, Pituuspiiri: 016-38E, korkeus merenpinnasta: 6 m

Tämänhetkinen sää

Tämä raportti tehtiin 29 minuuttia sitten, kello 13.20 UTC
Tuuli 11 kn lounaasta, vaihdellen etelän ja lännen/lounaan välillä
Lämpötila 24°C
Kosteus 27%
Ilmanpaine 1025 hPa
Näkyvyys 10 km tai enemmän
ei pilviä alle 1500 m:ssä eikä cumulonimbus-pilviä

METAR: ESOW 201320Z 22011KT 180V240 CAVOK 24/04 Q1025

Aika: 15:49 (13:49 UTC)

Sääennuste

Tämä raportti tehtiin 2 tuntia ja 19 minuuttia sitten, kello 11.30 UTC
Ennuste voimassa 20. päivästä klo 12 UTC - 20. päivään klo 14 UTC
Tuuli 10 kn lounaasta
Näkyvyys 10 km tai enemmän
ei pilviä alle 1500 m:ssä eikä cumulonimbus-pilviä

TAF: ESOW 201130Z 2012/2014 22010KT CAVOK

Säähavainnot ja -ennusteet yli 4000 lentoasemalta (METAR- ja TAF-raportit).

Käytössä olevat sääasemat on merkitty karttaan keltaisilla ja punaisilla pisteillä.

Aseta hiiri pisteen päälle nähdäksesi sääaseman nimen.

Klikkaa sitten nähdäksesi säähavainnot ja -ennusteet.

Kartan vaihtaminen: klikkaa mustalla rastilla varustettuja vihreitä pisteitä, niin voit zoomata sisään; viivalla varustettua vihreää pistettä, niin voit zoomata ulos tai vihreitä nuolia, niin pääset viereisille kartoille.


METAR-TAF: